createdAt,value
2018-10-16T00:01:04.577Z,9.73
2018-10-16T00:03:32.833Z,9.90
2018-10-16T00:06:01.030Z,8.70
2018-10-16T00:08:29.390Z,9.13
2018-10-16T00:10:58.129Z,8.73
2018-10-16T00:13:26.257Z,8.47
2018-10-16T00:15:54.566Z,9.03
2018-10-16T00:18:22.713Z,8.67
2018-10-16T00:20:50.910Z,8.53
2018-10-16T00:23:19.549Z,9.35
2018-10-16T00:25:47.646Z,9.60
2018-10-16T00:28:16.305Z,9.53
2018-10-16T00:30:45.229Z,9.27
2018-10-16T00:33:13.625Z,9.93
2018-10-16T00:35:41.769Z,9.60
2018-10-16T00:38:10.018Z,9.33
2018-10-16T00:40:38.147Z,8.73
2018-10-16T00:43:06.621Z,8.43
2018-10-16T00:45:34.863Z,8.70
2018-10-16T00:48:03.178Z,8.93
2018-10-16T00:50:31.357Z,8.73
2018-10-16T00:52:59.590Z,8.73
2018-10-16T00:55:29.614Z,8.73
2018-10-16T00:58:13.330Z,8.40
2018-10-16T01:00:42.093Z,7.77
2018-10-16T01:03:10.242Z,8.53
2018-10-16T01:05:38.477Z,8.80
2018-10-16T01:08:06.958Z,8.77
2018-10-16T01:10:35.257Z,8.50
2018-10-16T01:13:03.657Z,8.70
2018-10-16T01:15:32.324Z,8.43
2018-10-16T01:18:00.533Z,8.80
2018-10-16T01:20:28.777Z,9.40
2018-10-16T01:22:57.050Z,9.17
2018-10-16T01:25:25.277Z,8.45
2018-10-16T01:27:54.461Z,9.33
2018-10-16T01:30:22.618Z,8.50
2018-10-16T01:32:50.816Z,8.80
2018-10-16T01:35:18.885Z,8.97
2018-10-16T01:37:47.034Z,9.53
2018-10-16T01:40:16.014Z,9.20
2018-10-16T01:42:44.185Z,9.40
2018-10-16T01:45:12.274Z,7.93
2018-10-16T01:47:40.656Z,7.87
2018-10-16T01:50:09.158Z,9.53
2018-10-16T01:52:37.453Z,8.77
2018-10-16T01:55:09.426Z,9.40
2018-10-16T01:57:37.571Z,8.37
2018-10-16T02:00:06.810Z,8.70
2018-10-16T02:02:34.986Z,8.70
2018-10-16T02:05:03.414Z,9.30
2018-10-16T02:07:31.726Z,8.55
2018-10-16T02:10:00.324Z,8.80
2018-10-16T02:12:28.646Z,8.33
2018-10-16T02:14:56.861Z,8.63
2018-10-16T02:17:24.874Z,8.67
2018-10-16T02:19:53.174Z,9.40
2018-10-16T02:22:24.177Z,8.37
2018-10-16T02:24:52.357Z,9.30
2018-10-16T02:27:21.057Z,9.40
2018-10-16T02:29:49.721Z,9.40
2018-10-16T02:32:17.787Z,9.30
2018-10-16T02:34:45.929Z,8.23
2018-10-16T02:37:14.062Z,8.73
2018-10-16T02:39:42.741Z,8.93
2018-10-16T02:42:11.063Z,8.87
2018-10-16T02:44:39.227Z,9.37
2018-10-16T02:47:07.626Z,8.70
2018-10-16T02:49:35.768Z,9.73
2018-10-16T02:52:04.310Z,8.57
2018-10-16T02:54:32.731Z,8.80
2018-10-16T02:57:00.977Z,9.00
2018-10-16T02:59:29.217Z,9.23
2018-10-16T03:01:57.460Z,9.30
2018-10-16T03:04:25.534Z,9.03
2018-10-16T03:06:53.581Z,10.00
2018-10-16T03:09:22.030Z,10.33
2018-10-16T03:11:50.318Z,9.40
2018-10-16T03:14:18.417Z,8.33
2018-10-16T03:16:46.515Z,9.80
2018-10-16T03:19:14.765Z,9.10
2018-10-16T03:21:43.086Z,7.90
2018-10-16T03:24:11.177Z,7.80
2018-10-16T03:26:39.749Z,9.30
2018-10-16T03:29:08.725Z,9.00
2018-10-16T03:31:37.030Z,8.77
2018-10-16T03:34:05.754Z,8.93
2018-10-16T03:36:34.001Z,8.60
2018-10-16T03:39:02.168Z,9.60
2018-10-16T03:41:30.297Z,8.53
2018-10-16T03:44:00.382Z,8.37
2018-10-16T03:46:29.429Z,9.95
2018-10-16T03:48:58.177Z,8.73
2018-10-16T03:51:26.357Z,9.18
2018-10-16T03:53:56.293Z,8.90
2018-10-16T03:56:25.163Z,8.98
2018-10-16T03:58:53.477Z,8.83
2018-10-16T04:01:22.273Z,9.17
2018-10-16T04:03:50.629Z,8.87
2018-10-16T04:06:20.712Z,9.83
2018-10-16T04:08:49.893Z,8.93
2018-10-16T04:11:18.229Z,7.70
2018-10-16T04:13:46.406Z,9.00
2018-10-16T04:16:14.506Z,9.53
2018-10-16T04:18:42.657Z,9.23
2018-10-16T04:21:11.241Z,10.27
2018-10-16T04:23:41.792Z,9.63
2018-10-16T04:26:10.368Z,10.33
2018-10-16T04:28:38.509Z,9.77
2018-10-16T04:31:07.606Z,9.40
2018-10-16T04:33:36.178Z,9.80
2018-10-16T04:36:04.409Z,9.37
2018-10-16T04:38:32.561Z,9.67
2018-10-16T04:41:00.764Z,8.60
2018-10-16T04:43:28.829Z,9.45
2018-10-16T04:45:57.221Z,9.90
2018-10-16T04:48:25.977Z,9.53
2018-10-16T04:50:54.133Z,10.03
2018-10-16T04:53:22.542Z,10.30
2018-10-16T04:55:50.685Z,9.37
2018-10-16T04:58:19.469Z,9.53
2018-10-16T05:00:47.586Z,10.00
2018-10-16T05:03:15.720Z,9.77
2018-10-16T05:05:44.077Z,9.80
2018-10-16T05:08:12.475Z,9.87
2018-10-16T05:10:40.746Z,10.10
2018-10-16T05:13:08.951Z,9.47
2018-10-16T05:15:37.094Z,10.40
2018-10-16T05:18:06.300Z,10.20
2018-10-16T05:20:34.810Z,9.33
2018-10-16T05:23:03.032Z,9.70
2018-10-16T05:25:31.553Z,8.93
2018-10-16T05:28:01.001Z,8.70
2018-10-16T05:30:29.093Z,9.13
2018-10-16T05:32:57.393Z,9.63
2018-10-16T05:35:26.063Z,9.30
2018-10-16T05:37:54.328Z,9.90
2018-10-16T05:40:22.465Z,9.77
2018-10-16T05:42:50.625Z,9.03
2018-10-16T05:45:18.897Z,10.43
2018-10-16T05:47:47.277Z,9.47
2018-10-16T05:50:15.429Z,9.20
2018-10-16T05:52:44.240Z,8.27
2018-10-16T05:55:12.377Z,9.10
2018-10-16T05:57:40.605Z,8.87
2018-10-16T06:00:20.231Z,9.00
2018-10-16T06:02:49.066Z,8.97
2018-10-16T06:05:17.181Z,8.67
2018-10-16T06:07:45.369Z,10.00
2018-10-16T06:10:14.013Z,8.97
2018-10-16T06:12:42.357Z,8.90
2018-10-16T06:15:11.237Z,8.97
2018-10-16T06:17:39.317Z,9.23
2018-10-16T06:20:09.569Z,9.00
2018-10-16T06:22:38.065Z,9.10
2018-10-16T06:25:07.074Z,9.07
2018-10-16T06:27:35.758Z,9.10
2018-10-16T06:30:03.855Z,9.37
2018-10-16T06:32:31.941Z,9.20
2018-10-16T06:35:00.190Z,8.53
2018-10-16T06:37:28.765Z,9.55
2018-10-16T06:39:57.066Z,9.63
2018-10-16T06:42:25.656Z,9.77
2018-10-16T06:44:53.777Z,9.60
2018-10-16T06:47:22.444Z,10.00
2018-10-16T06:49:50.457Z,10.00
2018-10-16T06:52:18.889Z,9.47
2018-10-16T06:54:47.339Z,9.23
2018-10-16T06:57:15.749Z,9.80
2018-10-16T06:59:43.889Z,9.90
2018-10-16T07:02:12.029Z,9.43
2018-10-16T07:04:40.221Z,10.17
2018-10-16T07:07:09.353Z,10.53
2018-10-16T07:09:37.261Z,10.43
2018-10-16T07:12:06.737Z,10.33
2018-10-16T07:14:34.845Z,9.97
2018-10-16T07:17:03.161Z,10.00
2018-10-16T07:19:31.321Z,9.95
2018-10-16T07:21:59.629Z,11.30
2018-10-16T07:24:27.773Z,11.40
2018-10-16T07:26:55.845Z,10.57
2018-10-16T07:29:24.011Z,9.55
2018-10-16T07:31:52.581Z,10.40
2018-10-16T07:34:20.801Z,9.33
2018-10-16T07:36:48.917Z,9.40
2018-10-16T07:39:18.301Z,10.23
2018-10-16T07:41:46.721Z,11.00
2018-10-16T07:44:15.490Z,11.00
2018-10-16T07:46:44.073Z,10.43
2018-10-16T07:49:12.519Z,11.03
2018-10-16T07:51:40.953Z,10.20
2018-10-16T07:54:09.617Z,10.60
2018-10-16T07:56:38.023Z,10.58
2018-10-16T07:59:06.683Z,11.87
2018-10-16T08:01:35.389Z,12.83
2018-10-16T08:04:03.610Z,12.13
2018-10-16T08:06:32.029Z,12.70
2018-10-16T08:09:00.993Z,10.82
2018-10-16T08:11:29.218Z,11.33
2018-10-16T08:13:57.248Z,11.13
2018-10-16T08:16:25.375Z,11.00
2018-10-16T08:18:54.153Z,11.60
2018-10-16T08:21:22.349Z,11.73
2018-10-16T08:23:50.498Z,11.90
2018-10-16T08:26:19.187Z,11.63
2018-10-16T08:28:47.297Z,12.43
2018-10-16T08:31:16.302Z,11.15
2018-10-16T08:33:44.757Z,11.25
2018-10-16T08:36:13.017Z,11.63
2018-10-16T08:38:55.302Z,11.60
2018-10-16T08:41:34.429Z,11.75
2018-10-16T08:44:16.101Z,11.80
2018-10-16T08:46:55.657Z,11.78
2018-10-16T08:49:35.133Z,12.47
2018-10-16T08:52:03.293Z,12.05
2018-10-16T08:54:31.932Z,12.28
2018-10-16T08:57:00.565Z,11.60
2018-10-16T08:59:29.751Z,11.57
2018-10-16T09:01:58.569Z,12.35
2018-10-16T09:04:26.734Z,12.37
2018-10-16T09:06:55.407Z,12.00
2018-10-16T09:09:23.461Z,11.73
2018-10-16T09:11:51.710Z,11.05
2018-10-16T09:14:20.141Z,10.80
2018-10-16T09:16:48.189Z,10.65
2018-10-16T09:19:16.374Z,10.43
2018-10-16T09:21:44.633Z,10.68
2018-10-16T09:24:12.840Z,9.75
2018-10-16T09:26:40.985Z,9.50
2018-10-16T09:29:09.233Z,10.70
2018-10-16T09:31:37.600Z,9.78
2018-10-16T09:34:05.713Z,10.70
2018-10-16T09:36:34.451Z,9.80
2018-10-16T09:39:03.349Z,10.20
2018-10-16T09:41:31.497Z,10.53
2018-10-16T09:43:59.692Z,11.08
2018-10-16T09:46:28.349Z,11.25
2018-10-16T09:48:56.711Z,10.93
2018-10-16T09:51:24.777Z,10.13
2018-10-16T09:53:53.113Z,10.75
2018-10-16T09:56:21.600Z,10.70
2018-10-16T09:58:49.709Z,9.88
2018-10-16T10:01:23.654Z,9.40
2018-10-16T10:03:52.129Z,10.05
2018-10-16T10:06:20.293Z,10.13
2018-10-16T10:08:48.498Z,9.45
2018-10-16T10:11:16.669Z,9.60
2018-10-16T10:13:44.818Z,8.93
2018-10-16T10:16:13.026Z,9.53
2018-10-16T10:18:41.170Z,10.78
2018-10-16T10:21:10.169Z,10.15
2018-10-16T10:23:38.418Z,10.30
2018-10-16T10:26:06.593Z,11.47
2018-10-16T10:28:35.174Z,10.50
2018-10-16T10:31:03.257Z,10.18
2018-10-16T10:33:31.797Z,10.67
2018-10-16T10:35:59.925Z,9.83
2018-10-16T10:38:28.114Z,9.80
2018-10-16T10:40:56.319Z,9.93
2018-10-16T10:43:25.004Z,9.07
2018-10-16T10:45:53.825Z,9.18
2018-10-16T10:48:21.926Z,9.70
2018-10-16T10:50:50.291Z,9.75
2018-10-16T10:53:18.287Z,8.50
2018-10-16T10:55:46.461Z,9.20
2018-10-16T10:58:15.225Z,9.05
2018-10-16T11:00:43.425Z,9.43
2018-10-16T11:03:11.539Z,9.20
2018-10-16T11:05:39.634Z,9.98
2018-10-16T11:08:07.853Z,9.15
2018-10-16T11:10:37.265Z,8.93
2018-10-16T11:13:05.566Z,10.13
2018-10-16T11:15:34.021Z,10.23
2018-10-16T11:18:03.836Z,9.58
2018-10-16T11:20:32.213Z,10.17
2018-10-16T11:23:01.001Z,10.20
2018-10-16T11:25:29.386Z,11.23
2018-10-16T11:27:57.541Z,9.85
2018-10-16T11:30:26.330Z,10.63
2018-10-16T11:32:54.636Z,10.75
2018-10-16T11:35:22.764Z,10.00
2018-10-16T11:37:50.957Z,10.23
2018-10-16T11:40:19.426Z,9.40
2018-10-16T11:42:48.163Z,10.03
2018-10-16T11:45:17.293Z,9.46
2018-10-16T11:47:45.794Z,9.05
2018-10-16T11:50:14.066Z,9.60
2018-10-16T11:52:42.264Z,9.00
2018-10-16T11:55:10.776Z,9.70
2018-10-16T11:57:39.062Z,8.95
2018-10-16T12:00:10.226Z,9.20
2018-10-16T12:02:38.430Z,9.73
2018-10-16T12:05:06.499Z,9.28
2018-10-16T12:07:34.761Z,9.03
2018-10-16T12:10:02.844Z,9.35
2018-10-16T12:12:31.838Z,9.57
2018-10-16T12:15:00.329Z,9.05
2018-10-16T12:17:35.753Z,8.27
2018-10-16T12:20:09.787Z,9.00
2018-10-16T12:22:38.201Z,8.00
2018-10-16T12:25:06.862Z,7.78
2018-10-16T12:27:35.074Z,8.18
2018-10-16T12:30:03.230Z,8.05
2018-10-16T12:32:31.294Z,7.33
2018-10-16T12:34:59.453Z,7.85
2018-10-16T12:37:28.189Z,6.97
2018-10-16T12:39:56.440Z,7.03
2018-10-16T12:42:24.969Z,7.53
2018-10-16T12:44:53.194Z,7.22
2018-10-16T12:47:21.310Z,6.40
2018-10-16T12:49:49.389Z,5.60
2018-10-16T12:52:17.598Z,5.50
2018-10-16T12:54:45.738Z,6.10
2018-10-16T12:57:13.983Z,5.70
2018-10-16T12:59:42.099Z,6.12
2018-10-16T13:02:10.232Z,5.58
2018-10-16T13:04:38.277Z,5.80
2018-10-16T13:07:13.487Z,5.95
2018-10-16T13:09:41.642Z,5.95
2018-10-16T13:12:09.917Z,6.10
2018-10-16T13:14:37.985Z,7.20
2018-10-16T13:17:06.881Z,7.33
2018-10-16T13:19:34.921Z,6.30
2018-10-16T13:22:03.055Z,6.40
2018-10-16T13:24:31.098Z,6.67
2018-10-16T13:26:59.301Z,6.72
2018-10-16T13:29:28.222Z,6.87
2018-10-16T13:31:56.697Z,7.53
2018-10-16T13:34:25.332Z,7.10
2018-10-16T13:36:54.527Z,8.03
2018-10-16T13:39:22.826Z,8.08
2018-10-16T13:41:51.031Z,7.33
2018-10-16T13:44:19.284Z,7.75
2018-10-16T13:46:47.517Z,7.37
2018-10-16T13:49:17.097Z,7.60
2018-10-16T13:51:45.223Z,8.05
2018-10-16T13:54:15.373Z,7.80
2018-10-16T13:56:43.651Z,8.50
2018-10-16T13:59:11.958Z,7.90
2018-10-16T14:01:40.417Z,7.55
2018-10-16T14:04:09.418Z,7.70
2018-10-16T14:06:37.462Z,7.67
2018-10-16T14:09:07.612Z,8.08
2018-10-16T14:11:35.778Z,7.28
2018-10-16T14:14:03.910Z,7.75
2018-10-16T14:16:31.938Z,7.78
2018-10-16T14:19:00.382Z,6.95
2018-10-16T14:21:28.625Z,6.78
2018-10-16T14:23:57.049Z,6.08
2018-10-16T14:26:25.535Z,6.33
2018-10-16T14:28:54.410Z,6.05
2018-10-16T14:31:22.970Z,6.95
2018-10-16T14:33:51.861Z,6.92
2018-10-16T14:36:19.938Z,7.45
2018-10-16T14:38:48.030Z,6.65
2018-10-16T14:41:16.390Z,6.78
2018-10-16T14:43:44.873Z,7.20
2018-10-16T14:46:13.693Z,7.25
2018-10-16T14:48:41.729Z,7.25
2018-10-16T14:51:10.377Z,7.28
2018-10-16T14:53:38.653Z,6.45
2018-10-16T14:56:07.464Z,6.80
2018-10-16T14:58:35.909Z,6.65
2018-10-16T15:01:04.597Z,7.80
2018-10-16T15:03:33.282Z,6.85
2018-10-16T15:06:01.377Z,7.65
2018-10-16T15:08:29.704Z,6.83
2018-10-16T15:10:58.113Z,8.90
2018-10-16T15:13:26.667Z,6.97
2018-10-16T15:15:54.871Z,7.33
2018-10-16T15:18:23.007Z,9.10
2018-10-16T15:20:51.229Z,8.65
2018-10-16T15:23:19.358Z,8.50
2018-10-16T15:25:47.606Z,9.05
2018-10-16T15:28:16.967Z,9.75
2018-10-16T15:30:44.949Z,8.83
2018-10-16T15:33:13.117Z,8.33
2018-10-16T15:35:41.878Z,9.95
2018-10-16T15:38:09.951Z,8.73
2018-10-16T15:40:38.033Z,8.38
2018-10-16T15:43:07.223Z,9.77
2018-10-16T15:45:35.398Z,10.43
2018-10-16T15:48:03.618Z,10.30
2018-10-16T15:50:31.981Z,12.55
2018-10-16T15:53:00.117Z,10.90
2018-10-16T15:55:28.278Z,11.10
2018-10-16T15:57:57.349Z,10.93
2018-10-16T16:00:25.457Z,11.35
2018-10-16T16:02:53.729Z,12.37
2018-10-16T16:05:22.230Z,11.32
2018-10-16T16:07:51.358Z,11.30
2018-10-16T16:10:19.505Z,10.65
2018-10-16T16:12:47.734Z,11.85
2018-10-16T16:15:15.843Z,11.15
2018-10-16T16:17:44.597Z,10.75
2018-10-16T16:20:14.233Z,11.30
2018-10-16T16:22:42.353Z,11.70
2018-10-16T16:25:11.756Z,11.63
2018-10-16T16:27:40.213Z,13.28
2018-10-16T16:30:10.760Z,11.53
2018-10-16T16:32:39.730Z,11.95
2018-10-16T16:35:08.723Z,11.97
2018-10-16T16:37:37.217Z,11.63
2018-10-16T16:40:07.313Z,11.27
2018-10-16T16:42:35.722Z,10.68
2018-10-16T16:45:03.885Z,11.97
2018-10-16T16:47:34.057Z,11.10
2018-10-16T16:50:02.542Z,13.20
2018-10-16T16:52:31.203Z,11.83
2018-10-16T16:54:59.301Z,10.90
2018-10-16T16:57:27.526Z,12.18
2018-10-16T16:59:55.719Z,13.60
2018-10-16T17:02:24.894Z,12.17
2018-10-16T17:04:54.799Z,12.65
2018-10-16T17:07:23.009Z,12.23
2018-10-16T17:09:51.300Z,11.25
2018-10-16T17:12:19.433Z,12.15
2018-10-16T17:14:47.513Z,11.97
2018-10-16T17:17:15.677Z,12.75
2018-10-16T17:19:43.897Z,12.25
2018-10-16T17:22:13.047Z,11.95
2018-10-16T17:24:41.171Z,12.47
2018-10-16T17:27:09.294Z,12.78
2018-10-16T17:29:37.511Z,11.05
2018-10-16T17:32:05.636Z,12.37
2018-10-16T17:34:34.665Z,11.83
2018-10-16T17:37:03.027Z,11.50
2018-10-16T17:39:31.464Z,11.97
2018-10-16T17:41:59.573Z,11.78
2018-10-16T17:44:27.805Z,12.20
2018-10-16T17:46:55.926Z,10.90
2018-10-16T17:49:24.405Z,12.47
2018-10-16T17:51:52.502Z,11.60
2018-10-16T17:54:20.754Z,12.73
2018-10-16T17:56:48.953Z,11.50
2018-10-16T17:59:17.025Z,11.38
2018-10-16T18:01:45.276Z,12.15
2018-10-16T18:04:14.153Z,13.13
2018-10-16T18:06:42.370Z,13.58
2018-10-16T18:09:10.625Z,14.28
2018-10-16T18:11:38.733Z,12.65
2018-10-16T18:14:07.597Z,13.13
2018-10-16T18:16:36.139Z,12.13
2018-10-16T18:19:06.764Z,11.90
2018-10-16T18:21:34.973Z,13.70
2018-10-16T18:24:04.100Z,12.05
2018-10-16T18:26:32.242Z,13.50
2018-10-16T18:29:00.485Z,15.10
2018-10-16T18:31:28.778Z,14.23
2018-10-16T18:33:57.466Z,14.68
2018-10-16T18:36:26.797Z,14.70
2018-10-16T18:38:55.519Z,14.23
2018-10-16T18:41:24.297Z,13.75
2018-10-16T18:43:52.417Z,15.98
2018-10-16T18:46:20.630Z,16.43
2018-10-16T18:48:48.809Z,15.23
2018-10-16T18:51:17.790Z,16.27
2018-10-16T18:53:46.386Z,16.50
2018-10-16T18:56:14.738Z,16.67
2018-10-16T18:59:14.102Z,14.63
2018-10-16T19:01:42.187Z,14.98
2018-10-16T19:04:11.154Z,15.53
2018-10-16T19:06:39.261Z,13.20
2018-10-16T19:09:15.380Z,15.03
2018-10-16T19:11:43.953Z,15.70
2018-10-16T19:14:12.198Z,14.47
2018-10-16T19:16:40.662Z,15.10
2018-10-16T19:19:08.804Z,15.43
2018-10-16T19:22:41.177Z,16.07
2018-10-16T19:25:10.109Z,16.25
2018-10-16T19:27:38.661Z,15.20
2018-10-16T19:30:07.973Z,15.53
2018-10-16T19:32:36.696Z,15.25
2018-10-16T19:35:05.066Z,15.68
2018-10-16T19:37:33.355Z,16.97
2018-10-16T19:40:01.410Z,15.28
2018-10-16T19:42:30.005Z,15.90
2018-10-16T19:44:58.766Z,15.25
2018-10-16T19:47:26.895Z,16.37
2018-10-16T19:49:55.099Z,16.37
2018-10-16T19:52:23.545Z,16.67
2018-10-16T19:54:51.737Z,17.15
2018-10-16T19:57:21.032Z,18.47
2018-10-16T19:59:51.036Z,17.00
2018-10-16T20:02:19.175Z,18.37
2018-10-16T20:04:47.313Z,17.30
2018-10-16T20:07:15.451Z,18.27
2018-10-16T20:09:43.513Z,19.30
2018-10-16T20:12:11.979Z,19.97
2018-10-16T20:14:40.749Z,19.40
2018-10-16T20:17:09.065Z,20.02
2018-10-16T20:19:38.495Z,20.50
2018-10-16T20:22:08.773Z,21.93
2018-10-16T20:24:36.937Z,20.95
2018-10-16T20:27:05.137Z,21.13
2018-10-16T20:29:33.645Z,21.73
2018-10-16T20:32:01.874Z,21.50
2018-10-16T20:34:30.130Z,19.30
2018-10-16T20:36:58.274Z,20.10
2018-10-16T20:39:26.909Z,21.97
2018-10-16T20:41:55.197Z,21.03
2018-10-16T20:45:26.565Z,21.10
2018-10-16T20:47:55.291Z,20.70
2018-10-16T20:50:23.464Z,21.47
2018-10-16T20:52:51.581Z,20.77
2018-10-16T20:55:20.893Z,22.93
2018-10-16T20:57:48.990Z,21.73
2018-10-16T21:00:17.152Z,20.80
2018-10-16T21:02:45.496Z,19.00
2018-10-16T21:05:15.097Z,17.77
2018-10-16T21:07:43.693Z,17.97
2018-10-16T21:10:12.145Z,17.10
2018-10-16T21:12:40.538Z,16.47
2018-10-16T21:15:09.702Z,15.23
2018-10-16T21:17:38.518Z,16.73
2018-10-16T21:20:07.588Z,17.62
2018-10-16T21:22:40.594Z,15.93
2018-10-16T21:25:09.548Z,14.47
2018-10-16T21:27:37.657Z,15.93
2018-10-16T21:30:07.525Z,15.40
2018-10-16T21:32:35.622Z,15.10
2018-10-16T21:35:04.079Z,16.60
2018-10-16T21:37:32.402Z,17.50
2018-10-16T21:40:00.537Z,16.60
2018-10-16T21:42:28.945Z,16.85
2018-10-16T21:44:59.006Z,16.50
2018-10-16T21:47:27.213Z,16.50
2018-10-16T21:49:55.434Z,17.17
2018-10-16T21:52:23.577Z,15.27
2018-10-16T21:54:51.834Z,16.07
2018-10-16T21:57:20.645Z,28.70
2018-10-16T21:59:48.941Z,31.07
2018-10-16T22:02:22.449Z,24.85
2018-10-16T22:04:50.632Z,17.98
2018-10-16T22:07:19.191Z,15.80
2018-10-16T22:09:47.561Z,14.83
2018-10-16T22:12:15.709Z,13.43
2018-10-16T22:14:43.806Z,12.43
2018-10-16T22:17:12.115Z,12.23
2018-10-16T22:19:41.589Z,12.73
2018-10-16T22:22:09.681Z,13.37
2018-10-16T22:24:37.790Z,14.35
2018-10-16T22:27:06.933Z,13.73
2018-10-16T22:29:35.071Z,14.90
2018-10-16T22:32:03.913Z,14.97
2018-10-16T22:34:32.685Z,14.80
2018-10-16T22:37:00.862Z,15.27
2018-10-16T22:39:29.317Z,16.07
2018-10-16T22:41:57.542Z,16.30
2018-10-16T22:44:25.925Z,15.43
2018-10-16T22:46:54.579Z,16.97
2018-10-16T22:49:22.933Z,16.03
2018-10-16T22:51:51.313Z,14.73
2018-10-16T22:54:20.773Z,15.27
2018-10-16T22:56:48.861Z,15.47
2018-10-16T22:59:17.120Z,14.50
2018-10-16T23:01:45.235Z,13.87
2018-10-16T23:04:13.437Z,15.60
2018-10-16T23:06:41.586Z,15.13
2018-10-16T23:09:10.116Z,15.20
2018-10-16T23:11:38.285Z,15.93
2018-10-16T23:14:06.622Z,15.03
2018-10-16T23:16:35.026Z,16.13
2018-10-16T23:19:03.794Z,17.53
2018-10-16T23:21:32.011Z,17.53
2018-10-16T23:24:00.454Z,17.00
2018-10-16T23:26:28.681Z,17.63
2018-10-16T23:28:56.809Z,19.13
2018-10-16T23:31:24.987Z,19.27
2018-10-16T23:33:54.005Z,18.43
2018-10-16T23:36:22.137Z,19.80
2018-10-16T23:38:50.326Z,19.87
2018-10-16T23:41:18.906Z,20.07
2018-10-16T23:43:47.476Z,19.90
2018-10-16T23:46:15.862Z,20.43
2018-10-16T23:48:44.109Z,19.10
2018-10-16T23:51:12.625Z,18.17
2018-10-16T23:53:42.293Z,17.77
2018-10-16T23:56:10.787Z,14.73
2018-10-16T23:58:39.004Z,13.97
